sensor_id;sensor_type;location;lat;lon;timestamp;P1;durP1;ratioP1;P2;durP2;ratioP2
28988;SDS011;16089;59.952;10.818;2022-11-15T00:01:10;2.17;;;0.90;;
28988;SDS011;16089;59.952;10.818;2022-11-15T00:03:40;2.10;;;1.00;;
28988;SDS011;16089;59.952;10.818;2022-11-15T00:06:08;1.70;;;0.70;;
28988;SDS011;16089;59.952;10.818;2022-11-15T00:08:34;1.75;;;0.90;;
28988;SDS011;16089;59.952;10.818;2022-11-15T00:11:01;1.05;;;0.68;;
28988;SDS011;16089;59.952;10.818;2022-11-15T00:13:28;1.95;;;0.90;;
28988;SDS011;16089;59.952;10.818;2022-11-15T00:15:56;1.83;;;0.88;;
28988;SDS011;16089;59.952;10.818;2022-11-15T00:18:23;1.80;;;1.00;;
28988;SDS011;16089;59.952;10.818;2022-11-15T00:20:49;2.40;;;1.20;;
28988;SDS011;16089;59.952;10.818;2022-11-15T00:23:17;2.65;;;1.50;;
28988;SDS011;16089;59.952;10.818;2022-11-15T00:25:43;2.38;;;1.20;;
28988;SDS011;16089;59.952;10.818;2022-11-15T00:28:09;2.30;;;1.00;;
28988;SDS011;16089;59.952;10.818;2022-11-15T00:30:35;2.10;;;1.00;;
28988;SDS011;16089;59.952;10.818;2022-11-15T00:33:02;1.80;;;1.00;;
28988;SDS011;16089;59.952;10.818;2022-11-15T00:35:30;2.13;;;1.08;;
28988;SDS011;16089;59.952;10.818;2022-11-15T00:37:57;3.53;;;1.10;;
28988;SDS011;16089;59.952;10.818;2022-11-15T00:40:24;3.17;;;1.10;;
28988;SDS011;16089;59.952;10.818;2022-11-15T00:42:51;2.17;;;1.02;;
28988;SDS011;16089;59.952;10.818;2022-11-15T00:45:17;1.98;;;0.95;;
28988;SDS011;16089;59.952;10.818;2022-11-15T00:47:43;2.15;;;1.10;;
28988;SDS011;16089;59.952;10.818;2022-11-15T00:50:10;1.55;;;0.80;;
28988;SDS011;16089;59.952;10.818;2022-11-15T00:52:36;2.03;;;0.98;;
28988;SDS011;16089;59.952;10.818;2022-11-15T00:55:03;1.75;;;0.93;;
28988;SDS011;16089;59.952;10.818;2022-11-15T00:57:30;1.70;;;0.80;;
28988;SDS011;16089;59.952;10.818;2022-11-15T00:59:57;1.88;;;0.80;;
28988;SDS011;16089;59.952;10.818;2022-11-15T01:02:23;1.45;;;0.70;;
28988;SDS011;16089;59.952;10.818;2022-11-15T01:04:49;1.73;;;0.85;;
28988;SDS011;16089;59.952;10.818;2022-11-15T01:07:16;2.08;;;1.00;;
28988;SDS011;16089;59.952;10.818;2022-11-15T01:09:42;1.60;;;0.80;;
28988;SDS011;16089;59.952;10.818;2022-11-15T01:12:08;1.95;;;0.90;;
28988;SDS011;16089;59.952;10.818;2022-11-15T01:14:36;2.45;;;0.88;;
28988;SDS011;16089;59.952;10.818;2022-11-15T01:17:02;1.25;;;0.68;;
28988;SDS011;16089;59.952;10.818;2022-11-15T01:19:28;1.55;;;0.70;;
28988;SDS011;16089;59.952;10.818;2022-11-15T01:21:55;9.88;;;1.00;;
28988;SDS011;16089;59.952;10.818;2022-11-15T01:24:21;1.45;;;0.80;;
28988;SDS011;16089;59.952;10.818;2022-11-15T01:26:47;1.83;;;0.90;;
28988;SDS011;16089;59.952;10.818;2022-11-15T01:29:14;1.88;;;0.85;;
28988;SDS011;16089;59.952;10.818;2022-11-15T01:31:41;3.53;;;0.70;;
28988;SDS011;16089;59.952;10.818;2022-11-15T01:34:07;1.73;;;0.75;;
28988;SDS011;16089;59.952;10.818;2022-11-15T01:36:34;2.13;;;0.80;;
28988;SDS011;16089;59.952;10.818;2022-11-15T01:39:00;2.03;;;0.82;;
28988;SDS011;16089;59.952;10.818;2022-11-15T01:41:27;2.97;;;1.13;;
28988;SDS011;16089;59.952;10.818;2022-11-15T01:43:54;2.63;;;1.33;;
28988;SDS011;16089;59.952;10.818;2022-11-15T01:46:28;3.65;;;1.30;;
28988;SDS011;16089;59.952;10.818;2022-11-15T01:49:00;2.28;;;1.20;;
28988;SDS011;16089;59.952;10.818;2022-11-15T01:51:28;2.60;;;1.10;;
28988;SDS011;16089;59.952;10.818;2022-11-15T01:53:57;2.25;;;1.00;;
28988;SDS011;16089;59.952;10.818;2022-11-15T01:56:25;1.92;;;0.95;;
28988;SDS011;16089;59.952;10.818;2022-11-15T01:58:54;3.05;;;1.10;;
28988;SDS011;16089;59.952;10.818;2022-11-15T02:01:22;2.05;;;1.05;;
28988;SDS011;16089;59.952;10.818;2022-11-15T02:03:51;2.17;;;1.10;;
28988;SDS011;16089;59.952;10.818;2022-11-15T02:06:19;3.47;;;1.23;;
28988;SDS011;16089;59.952;10.818;2022-11-15T02:08:46;2.00;;;1.00;;
28988;SDS011;16089;59.952;10.818;2022-11-15T02:11:13;2.17;;;0.85;;
28988;SDS011;16089;59.952;10.818;2022-11-15T02:13:39;2.55;;;0.90;;
28988;SDS011;16089;59.952;10.818;2022-11-15T02:16:07;2.55;;;1.00;;
28988;SDS011;16089;59.952;10.818;2022-11-15T02:18:35;1.80;;;0.88;;
28988;SDS011;16089;59.952;10.818;2022-11-15T02:21:09;2.92;;;1.40;;
28988;SDS011;16089;59.952;10.818;2022-11-15T02:23:48;4.70;;;1.88;;
28988;SDS011;16089;59.952;10.818;2022-11-15T02:26:34;11.68;;;3.13;;
28988;SDS011;16089;59.952;10.818;2022-11-15T02:29:03;6.60;;;2.90;;
28988;SDS011;16089;59.952;10.818;2022-11-15T02:31:34;4.63;;;2.63;;
28988;SDS011;16089;59.952;10.818;2022-11-15T02:34:04;4.97;;;2.83;;
28988;SDS011;16089;59.952;10.818;2022-11-15T02:36:36;6.15;;;3.17;;
28988;SDS011;16089;59.952;10.818;2022-11-15T02:39:07;5.63;;;3.08;;
28988;SDS011;16089;59.952;10.818;2022-11-15T02:41:37;5.55;;;2.88;;
28988;SDS011;16089;59.952;10.818;2022-11-15T02:44:07;6.20;;;3.08;;
28988;SDS011;16089;59.952;10.818;2022-11-15T02:46:35;7.80;;;3.38;;
28988;SDS011;16089;59.952;10.818;2022-11-15T02:49:20;13.65;;;3.30;;
28988;SDS011;16089;59.952;10.818;2022-11-15T02:51:47;5.35;;;2.92;;
28988;SDS011;16089;59.952;10.818;2022-11-15T02:54:21;4.35;;;2.45;;
28988;SDS011;16089;59.952;10.818;2022-11-15T02:56:48;10.50;;;3.03;;
28988;SDS011;16089;59.952;10.818;2022-11-15T02:59:22;4.90;;;2.83;;
28988;SDS011;16089;59.952;10.818;2022-11-15T03:01:54;4.22;;;2.45;;
28988;SDS011;16089;59.952;10.818;2022-11-15T03:04:23;6.57;;;2.83;;
28988;SDS011;16089;59.952;10.818;2022-11-15T03:06:51;5.70;;;3.10;;
28988;SDS011;16089;59.952;10.818;2022-11-15T03:09:21;9.80;;;2.95;;
28988;SDS011;16089;59.952;10.818;2022-11-15T03:11:53;6.80;;;2.75;;
28988;SDS011;16089;59.952;10.818;2022-11-15T03:14:23;4.78;;;2.53;;
28988;SDS011;16089;59.952;10.818;2022-11-15T03:16:51;5.20;;;2.97;;
28988;SDS011;16089;59.952;10.818;2022-11-15T03:19:22;4.72;;;2.65;;
28988;SDS011;16089;59.952;10.818;2022-11-15T03:21:53;3.50;;;2.20;;
28988;SDS011;16089;59.952;10.818;2022-11-15T03:24:21;3.78;;;2.10;;
28988;SDS011;16089;59.952;10.818;2022-11-15T03:26:50;4.72;;;2.00;;
28988;SDS011;16089;59.952;10.818;2022-11-15T03:29:19;5.03;;;2.28;;
28988;SDS011;16089;59.952;10.818;2022-11-15T03:31:48;3.25;;;1.95;;
28988;SDS011;16089;59.952;10.818;2022-11-15T03:34:22;4.28;;;2.33;;
28988;SDS011;16089;59.952;10.818;2022-11-15T03:36:50;4.85;;;2.10;;
28988;SDS011;16089;59.952;10.818;2022-11-15T03:39:17;5.13;;;2.22;;
28988;SDS011;16089;59.952;10.818;2022-11-15T03:41:46;5.20;;;2.38;;
28988;SDS011;16089;59.952;10.818;2022-11-15T03:44:14;4.53;;;2.17;;
28988;SDS011;16089;59.952;10.818;2022-11-15T03:46:43;3.60;;;1.90;;
28988;SDS011;16089;59.952;10.818;2022-11-15T03:49:13;3.25;;;1.60;;
28988;SDS011;16089;59.952;10.818;2022-11-15T03:51:42;5.97;;;2.13;;
28988;SDS011;16089;59.952;10.818;2022-11-15T03:54:08;4.40;;;2.55;;
28988;SDS011;16089;59.952;10.818;2022-11-15T03:56:35;4.55;;;2.10;;
28988;SDS011;16089;59.952;10.818;2022-11-15T03:59:01;4.05;;;2.20;;
28988;SDS011;16089;59.952;10.818;2022-11-15T04:01:27;3.63;;;1.75;;
28988;SDS011;16089;59.952;10.818;2022-11-15T04:03:54;4.95;;;1.90;;
28988;SDS011;16089;59.952;10.818;2022-11-15T04:06:20;3.72;;;2.08;;
28988;SDS011;16089;59.952;10.818;2022-11-15T04:08:47;3.72;;;1.90;;
28988;SDS011;16089;59.952;10.818;2022-11-15T04:11:14;4.50;;;2.40;;
28988;SDS011;16089;59.952;10.818;2022-11-15T04:13:40;4.35;;;2.03;;
28988;SDS011;16089;59.952;10.818;2022-11-15T04:16:06;3.95;;;1.70;;
28988;SDS011;16089;59.952;10.818;2022-11-15T04:18:33;4.97;;;2.25;;
28988;SDS011;16089;59.952;10.818;2022-11-15T04:20:59;4.47;;;2.15;;
28988;SDS011;16089;59.952;10.818;2022-11-15T04:23:43;3.63;;;1.70;;
28988;SDS011;16089;59.952;10.818;2022-11-15T04:26:28;4.30;;;2.30;;
28988;SDS011;16089;59.952;10.818;2022-11-15T04:28:55;4.85;;;2.60;;
28988;SDS011;16089;59.952;10.818;2022-11-15T04:31:39;4.10;;;2.70;;
28988;SDS011;16089;59.952;10.818;2022-11-15T04:34:05;4.72;;;2.17;;
28988;SDS011;16089;59.952;10.818;2022-11-15T04:36:31;4.55;;;2.28;;
28988;SDS011;16089;59.952;10.818;2022-11-15T04:39:15;4.93;;;2.45;;
28988;SDS011;16089;59.952;10.818;2022-11-15T04:41:43;4.63;;;2.33;;
28988;SDS011;16089;59.952;10.818;2022-11-15T04:44:09;5.63;;;2.17;;
28988;SDS011;16089;59.952;10.818;2022-11-15T04:46:35;5.00;;;2.40;;
28988;SDS011;16089;59.952;10.818;2022-11-15T04:49:02;4.60;;;2.47;;
28988;SDS011;16089;59.952;10.818;2022-11-15T04:51:28;5.10;;;2.78;;
28988;SDS011;16089;59.952;10.818;2022-11-15T04:53:54;4.18;;;2.20;;
28988;SDS011;16089;59.952;10.818;2022-11-15T04:56:20;4.75;;;2.10;;
28988;SDS011;16089;59.952;10.818;2022-11-15T04:58:49;3.45;;;1.80;;
28988;SDS011;16089;59.952;10.818;2022-11-15T05:01:15;4.32;;;2.25;;
28988;SDS011;16089;59.952;10.818;2022-11-15T05:03:42;4.82;;;1.98;;
28988;SDS011;16089;59.952;10.818;2022-11-15T05:06:26;3.72;;;1.88;;
28988;SDS011;16089;59.952;10.818;2022-11-15T05:08:52;3.63;;;1.52;;
28988;SDS011;16089;59.952;10.818;2022-11-15T05:11:19;3.10;;;1.50;;
28988;SDS011;16089;59.952;10.818;2022-11-15T05:13:46;4.10;;;1.60;;
28988;SDS011;16089;59.952;10.818;2022-11-15T05:16:13;2.92;;;1.60;;
28988;SDS011;16089;59.952;10.818;2022-11-15T05:18:40;3.97;;;1.65;;
28988;SDS011;16089;59.952;10.818;2022-11-15T05:21:06;2.50;;;1.30;;
28988;SDS011;16089;59.952;10.818;2022-11-15T05:23:33;2.60;;;1.40;;
28988;SDS011;16089;59.952;10.818;2022-11-15T05:25:59;3.67;;;1.38;;
28988;SDS011;16089;59.952;10.818;2022-11-15T05:28:26;2.88;;;1.10;;
28988;SDS011;16089;59.952;10.818;2022-11-15T05:30:52;3.33;;;1.20;;
28988;SDS011;16089;59.952;10.818;2022-11-15T05:33:20;2.85;;;1.10;;
28988;SDS011;16089;59.952;10.818;2022-11-15T05:35:46;4.25;;;1.73;;
28988;SDS011;16089;59.952;10.818;2022-11-15T05:38:14;2.25;;;1.13;;
28988;SDS011;16089;59.952;10.818;2022-11-15T05:40:41;3.80;;;1.13;;
28988;SDS011;16089;59.952;10.818;2022-11-15T05:43:07;3.88;;;1.15;;
28988;SDS011;16089;59.952;10.818;2022-11-15T05:45:33;2.25;;;1.10;;
28988;SDS011;16089;59.952;10.818;2022-11-15T05:48:00;2.55;;;1.08;;
28988;SDS011;16089;59.952;10.818;2022-11-15T05:50:31;2.97;;;1.10;;
28988;SDS011;16089;59.952;10.818;2022-11-15T05:52:57;2.25;;;1.10;;
28988;SDS011;16089;59.952;10.818;2022-11-15T05:55:24;2.78;;;1.30;;
28988;SDS011;16089;59.952;10.818;2022-11-15T05:57:50;2.45;;;1.17;;
28988;SDS011;16089;59.952;10.818;2022-11-15T06:00:17;3.13;;;1.20;;
28988;SDS011;16089;59.952;10.818;2022-11-15T06:02:43;2.00;;;0.95;;
28988;SDS011;16089;59.952;10.818;2022-11-15T06:05:09;1.80;;;0.90;;
28988;SDS011;16089;59.952;10.818;2022-11-15T06:07:37;2.80;;;1.00;;
28988;SDS011;16089;59.952;10.818;2022-11-15T06:10:03;1.70;;;0.88;;
28988;SDS011;16089;59.952;10.818;2022-11-15T06:12:30;2.38;;;0.80;;
28988;SDS011;16089;59.952;10.818;2022-11-15T06:14:56;2.17;;;0.90;;
28988;SDS011;16089;59.952;10.818;2022-11-15T06:17:22;2.80;;;1.00;;
28988;SDS011;16089;59.952;10.818;2022-11-15T06:19:49;2.70;;;0.82;;
28988;SDS011;16089;59.952;10.818;2022-11-15T06:22:15;1.83;;;0.70;;
28988;SDS011;16089;59.952;10.818;2022-11-15T06:24:43;1.95;;;0.80;;
28988;SDS011;16089;59.952;10.818;2022-11-15T06:27:10;5.80;;;0.90;;
28988;SDS011;16089;59.952;10.818;2022-11-15T06:29:36;2.42;;;0.70;;
28988;SDS011;16089;59.952;10.818;2022-11-15T06:32:02;1.92;;;0.80;;
28988;SDS011;16089;59.952;10.818;2022-11-15T06:34:29;4.25;;;0.95;;
28988;SDS011;16089;59.952;10.818;2022-11-15T06:36:55;2.63;;;0.90;;
28988;SDS011;16089;59.952;10.818;2022-11-15T06:39:21;1.77;;;0.63;;
28988;SDS011;16089;59.952;10.818;2022-11-15T06:41:49;2.13;;;0.75;;
28988;SDS011;16089;59.952;10.818;2022-11-15T06:44:15;3.80;;;1.02;;
28988;SDS011;16089;59.952;10.818;2022-11-15T06:46:42;4.28;;;0.80;;
28988;SDS011;16089;59.952;10.818;2022-11-15T06:49:08;2.38;;;0.70;;
28988;SDS011;16089;59.952;10.818;2022-11-15T06:51:35;1.88;;;0.70;;
28988;SDS011;16089;59.952;10.818;2022-11-15T06:54:01;1.00;;;0.40;;
28988;SDS011;16089;59.952;10.818;2022-11-15T06:56:27;1.58;;;0.60;;
28988;SDS011;16089;59.952;10.818;2022-11-15T06:58:56;2.70;;;0.63;;
28988;SDS011;16089;59.952;10.818;2022-11-15T07:01:22;3.63;;;1.10;;
28988;SDS011;16089;59.952;10.818;2022-11-15T07:03:48;2.47;;;0.75;;
28988;SDS011;16089;59.952;10.818;2022-11-15T07:06:15;2.33;;;0.82;;
28988;SDS011;16089;59.952;10.818;2022-11-15T07:08:41;3.58;;;1.10;;
28988;SDS011;16089;59.952;10.818;2022-11-15T07:11:36;2.80;;;0.85;;
28988;SDS011;16089;59.952;10.818;2022-11-15T07:14:04;7.25;;;1.35;;
28988;SDS011;16089;59.952;10.818;2022-11-15T07:16:30;2.72;;;0.80;;
28988;SDS011;16089;59.952;10.818;2022-11-15T07:18:56;3.25;;;0.98;;
28988;SDS011;16089;59.952;10.818;2022-11-15T07:21:23;3.30;;;0.80;;
28988;SDS011;16089;59.952;10.818;2022-11-15T07:23:49;1.48;;;0.60;;
28988;SDS011;16089;59.952;10.818;2022-11-15T07:26:15;2.97;;;0.65;;
28988;SDS011;16089;59.952;10.818;2022-11-15T07:28:42;2.47;;;0.80;;
28988;SDS011;16089;59.952;10.818;2022-11-15T07:31:09;1.70;;;0.70;;
28988;SDS011;16089;59.952;10.818;2022-11-15T07:33:36;2.03;;;0.70;;
28988;SDS011;16089;59.952;10.818;2022-11-15T07:36:03;2.30;;;0.65;;
28988;SDS011;16089;59.952;10.818;2022-11-15T07:38:29;1.55;;;0.80;;
28988;SDS011;16089;59.952;10.818;2022-11-15T07:40:56;1.83;;;0.60;;
28988;SDS011;16089;59.952;10.818;2022-11-15T07:43:23;2.08;;;0.63;;
28988;SDS011;16089;59.952;10.818;2022-11-15T07:45:50;1.80;;;0.70;;
28988;SDS011;16089;59.952;10.818;2022-11-15T07:48:18;2.25;;;1.00;;
28988;SDS011;16089;59.952;10.818;2022-11-15T07:50:44;1.85;;;0.70;;
28988;SDS011;16089;59.952;10.818;2022-11-15T07:53:11;1.75;;;0.82;;
28988;SDS011;16089;59.952;10.818;2022-11-15T07:55:39;2.42;;;1.00;;
28988;SDS011;16089;59.952;10.818;2022-11-15T07:58:06;5.70;;;1.20;;
28988;SDS011;16089;59.952;10.818;2022-11-15T08:00:33;2.85;;;1.38;;
28988;SDS011;16089;59.952;10.818;2022-11-15T08:03:03;4.53;;;0.90;;
28988;SDS011;16089;59.952;10.818;2022-11-15T08:05:31;2.65;;;1.00;;
28988;SDS011;16089;59.952;10.818;2022-11-15T08:07:57;2.10;;;0.95;;
28988;SDS011;16089;59.952;10.818;2022-11-15T08:10:24;2.88;;;0.88;;
28988;SDS011;16089;59.952;10.818;2022-11-15T08:12:56;2.55;;;0.82;;
28988;SDS011;16089;59.952;10.818;2022-11-15T08:15:22;2.72;;;1.17;;
28988;SDS011;16089;59.952;10.818;2022-11-15T08:17:52;2.10;;;1.20;;
28988;SDS011;16089;59.952;10.818;2022-11-15T08:20:18;2.53;;;1.10;;
28988;SDS011;16089;59.952;10.818;2022-11-15T08:22:46;4.35;;;1.20;;
28988;SDS011;16089;59.952;10.818;2022-11-15T08:25:13;4.70;;;1.15;;
28988;SDS011;16089;59.952;10.818;2022-11-15T08:27:39;2.25;;;1.20;;
28988;SDS011;16089;59.952;10.818;2022-11-15T08:30:06;2.75;;;1.15;;
28988;SDS011;16089;59.952;10.818;2022-11-15T08:32:32;3.22;;;1.05;;
28988;SDS011;16089;59.952;10.818;2022-11-15T08:34:59;2.38;;;1.08;;
28988;SDS011;16089;59.952;10.818;2022-11-15T08:37:25;2.30;;;0.93;;
28988;SDS011;16089;59.952;10.818;2022-11-15T08:39:53;3.03;;;1.20;;
28988;SDS011;16089;59.952;10.818;2022-11-15T08:42:19;2.10;;;1.10;;
28988;SDS011;16089;59.952;10.818;2022-11-15T08:44:45;5.05;;;1.30;;
28988;SDS011;16089;59.952;10.818;2022-11-15T08:47:11;7.63;;;2.78;;
28988;SDS011;16089;59.952;10.818;2022-11-15T08:49:38;3.70;;;1.40;;
28988;SDS011;16089;59.952;10.818;2022-11-15T08:52:04;2.67;;;1.50;;
28988;SDS011;16089;59.952;10.818;2022-11-15T08:54:31;4.43;;;1.40;;
28988;SDS011;16089;59.952;10.818;2022-11-15T08:56:59;5.25;;;1.30;;
28988;SDS011;16089;59.952;10.818;2022-11-15T08:59:25;2.53;;;1.20;;
28988;SDS011;16089;59.952;10.818;2022-11-15T09:01:51;2.72;;;1.13;;
28988;SDS011;16089;59.952;10.818;2022-11-15T09:04:18;2.95;;;1.20;;
28988;SDS011;16089;59.952;10.818;2022-11-15T09:06:44;4.13;;;1.20;;
28988;SDS011;16089;59.952;10.818;2022-11-15T09:09:10;3.72;;;1.23;;
28988;SDS011;16089;59.952;10.818;2022-11-15T09:11:37;4.07;;;1.40;;
28988;SDS011;16089;59.952;10.818;2022-11-15T09:14:05;1.95;;;1.08;;
28988;SDS011;16089;59.952;10.818;2022-11-15T09:16:31;3.65;;;1.20;;
28988;SDS011;16089;59.952;10.818;2022-11-15T09:18:57;5.78;;;1.23;;
28988;SDS011;16089;59.952;10.818;2022-11-15T09:21:24;2.42;;;1.23;;
28988;SDS011;16089;59.952;10.818;2022-11-15T09:23:50;3.42;;;1.00;;
28988;SDS011;16089;59.952;10.818;2022-11-15T09:26:17;2.97;;;1.10;;
28988;SDS011;16089;59.952;10.818;2022-11-15T09:28:44;2.38;;;0.75;;
28988;SDS011;16089;59.952;10.818;2022-11-15T09:31:11;3.08;;;1.30;;
28988;SDS011;16089;59.952;10.818;2022-11-15T09:33:37;3.97;;;1.00;;
28988;SDS011;16089;59.952;10.818;2022-11-15T09:36:04;2.70;;;1.00;;
28988;SDS011;16089;59.952;10.818;2022-11-15T09:38:32;2.38;;;0.90;;
28988;SDS011;16089;59.952;10.818;2022-11-15T09:41:08;3.60;;;0.80;;
28988;SDS011;16089;59.952;10.818;2022-11-15T09:43:42;3.67;;;0.90;;
28988;SDS011;16089;59.952;10.818;2022-11-15T09:46:14;1.63;;;0.80;;
28988;SDS011;16089;59.952;10.818;2022-11-15T09:48:44;1.73;;;0.70;;
28988;SDS011;16089;59.952;10.818;2022-11-15T09:51:14;2.17;;;0.70;;
28988;SDS011;16089;59.952;10.818;2022-11-15T09:53:47;2.75;;;0.80;;
28988;SDS011;16089;59.952;10.818;2022-11-15T09:56:16;0.70;;;0.50;;
28988;SDS011;16089;59.952;10.818;2022-11-15T09:58:45;2.17;;;0.73;;
28988;SDS011;16089;59.952;10.818;2022-11-15T10:01:16;2.33;;;0.80;;
28988;SDS011;16089;59.952;10.818;2022-11-15T10:03:43;2.92;;;0.80;;
28988;SDS011;16089;59.952;10.818;2022-11-15T10:06:18;1.58;;;0.60;;
28988;SDS011;16089;59.952;10.818;2022-11-15T10:08:50;5.45;;;2.30;;
28988;SDS011;16089;59.952;10.818;2022-11-15T10:11:18;1.83;;;0.63;;
28988;SDS011;16089;59.952;10.818;2022-11-15T10:13:46;1.20;;;0.47;;
28988;SDS011;16089;59.952;10.818;2022-11-15T10:16:17;1.05;;;0.50;;
28988;SDS011;16089;59.952;10.818;2022-11-15T10:18:49;2.60;;;0.70;;
28988;SDS011;16089;59.952;10.818;2022-11-15T10:21:20;1.80;;;0.40;;
28988;SDS011;16089;59.952;10.818;2022-11-15T10:23:46;1.52;;;0.45;;
28988;SDS011;16089;59.952;10.818;2022-11-15T10:26:15;0.47;;;0.30;;
28988;SDS011;16089;59.952;10.818;2022-11-15T10:28:41;2.47;;;0.45;;
28988;SDS011;16089;59.952;10.818;2022-11-15T10:31:20;1.02;;;0.40;;
28988;SDS011;16089;59.952;10.818;2022-11-15T10:33:48;1.13;;;0.40;;
28988;SDS011;16089;59.952;10.818;2022-11-15T10:36:15;1.02;;;0.40;;
28988;SDS011;16089;59.952;10.818;2022-11-15T10:38:52;0.85;;;0.50;;
28988;SDS011;16089;59.952;10.818;2022-11-15T10:41:19;1.55;;;0.65;;
28988;SDS011;16089;59.952;10.818;2022-11-15T10:43:46;0.88;;;0.40;;
28988;SDS011;16089;59.952;10.818;2022-11-15T10:46:26;2.17;;;0.45;;
28988;SDS011;16089;59.952;10.818;2022-11-15T10:48:54;1.45;;;0.40;;
28988;SDS011;16089;59.952;10.818;2022-11-15T10:51:39;1.30;;;0.40;;
28988;SDS011;16089;59.952;10.818;2022-11-15T10:54:06;1.33;;;0.30;;
28988;SDS011;16089;59.952;10.818;2022-11-15T10:56:35;3.10;;;0.80;;
28988;SDS011;16089;59.952;10.818;2022-11-15T10:59:02;0.88;;;0.40;;
28988;SDS011;16089;59.952;10.818;2022-11-15T11:01:28;1.48;;;0.40;;
28988;SDS011;16089;59.952;10.818;2022-11-15T11:03:59;0.90;;;0.32;;
28988;SDS011;16089;59.952;10.818;2022-11-15T11:06:26;1.95;;;0.43;;
28988;SDS011;16089;59.952;10.818;2022-11-15T11:08:53;0.98;;;0.43;;
28988;SDS011;16089;59.952;10.818;2022-11-15T11:11:20;1.55;;;0.40;;
28988;SDS011;16089;59.952;10.818;2022-11-15T11:13:46;1.75;;;0.45;;
28988;SDS011;16089;59.952;10.818;2022-11-15T11:16:25;0.80;;;0.50;;
28988;SDS011;16089;59.952;10.818;2022-11-15T11:18:55;2.88;;;0.80;;
28988;SDS011;16089;59.952;10.818;2022-11-15T11:21:26;2.00;;;0.50;;
28988;SDS011;16089;59.952;10.818;2022-11-15T11:23:57;3.75;;;0.77;;
28988;SDS011;16089;59.952;10.818;2022-11-15T11:26:34;1.55;;;0.40;;
28988;SDS011;16089;59.952;10.818;2022-11-15T11:29:02;1.17;;;0.40;;
28988;SDS011;16089;59.952;10.818;2022-11-15T11:31:35;1.70;;;0.32;;
28988;SDS011;16089;59.952;10.818;2022-11-15T11:34:04;2.65;;;0.47;;
28988;SDS011;16089;59.952;10.818;2022-11-15T11:36:38;3.30;;;0.63;;
28988;SDS011;16089;59.952;10.818;2022-11-15T11:39:11;0.98;;;0.30;;
28988;SDS011;16089;59.952;10.818;2022-11-15T11:41:46;1.42;;;0.35;;
28988;SDS011;16089;59.952;10.818;2022-11-15T11:44:16;2.15;;;0.40;;
28988;SDS011;16089;59.952;10.818;2022-11-15T11:46:47;1.55;;;0.38;;
28988;SDS011;16089;59.952;10.818;2022-11-15T11:49:15;3.40;;;0.55;;
28988;SDS011;16089;59.952;10.818;2022-11-15T11:51:43;1.45;;;0.43;;
28988;SDS011;16089;59.952;10.818;2022-11-15T11:54:12;2.20;;;0.50;;
28988;SDS011;16089;59.952;10.818;2022-11-15T11:56:39;2.83;;;0.40;;
28988;SDS011;16089;59.952;10.818;2022-11-15T11:59:09;2.58;;;0.70;;
28988;SDS011;16089;59.952;10.818;2022-11-15T12:01:37;1.90;;;0.40;;
28988;SDS011;16089;59.952;10.818;2022-11-15T12:04:09;1.13;;;0.32;;
28988;SDS011;16089;59.952;10.818;2022-11-15T12:06:36;1.95;;;0.40;;
28988;SDS011;16089;59.952;10.818;2022-11-15T12:09:11;2.10;;;0.60;;
28988;SDS011;16089;59.952;10.818;2022-11-15T12:11:43;3.50;;;0.47;;
28988;SDS011;16089;59.952;10.818;2022-11-15T12:14:16;3.63;;;0.52;;
28988;SDS011;16089;59.952;10.818;2022-11-15T12:16:45;2.05;;;0.30;;
28988;SDS011;16089;59.952;10.818;2022-11-15T12:19:12;1.27;;;0.40;;
28988;SDS011;16089;59.952;10.818;2022-11-15T12:21:39;1.90;;;0.40;;
28988;SDS011;16089;59.952;10.818;2022-11-15T12:24:11;3.05;;;0.57;;
28988;SDS011;16089;59.952;10.818;2022-11-15T12:26:40;1.33;;;0.32;;
28988;SDS011;16089;59.952;10.818;2022-11-15T12:29:09;3.83;;;0.73;;
28988;SDS011;16089;59.952;10.818;2022-11-15T12:31:38;1.45;;;0.30;;
28988;SDS011;16089;59.952;10.818;2022-11-15T12:34:13;1.17;;;0.30;;
28988;SDS011;16089;59.952;10.818;2022-11-15T12:36:40;3.13;;;0.68;;
28988;SDS011;16089;59.952;10.818;2022-11-15T12:39:09;1.50;;;0.40;;
28988;SDS011;16089;59.952;10.818;2022-11-15T12:41:36;3.85;;;0.60;;
28988;SDS011;16089;59.952;10.818;2022-11-15T12:44:03;1.77;;;0.40;;
28988;SDS011;16089;59.952;10.818;2022-11-15T12:49:41;2.22;;;0.43;;
28988;SDS011;16089;59.952;10.818;2022-11-15T12:52:08;3.47;;;0.60;;
28988;SDS011;16089;59.952;10.818;2022-11-15T12:54:56;2.13;;;0.43;;
28988;SDS011;16089;59.952;10.818;2022-11-15T12:57:27;2.05;;;0.57;;
28988;SDS011;16089;59.952;10.818;2022-11-15T12:59:55;2.85;;;0.95;;
28988;SDS011;16089;59.952;10.818;2022-11-15T13:02:23;4.40;;;0.70;;
28988;SDS011;16089;59.952;10.818;2022-11-15T13:04:51;1.45;;;0.50;;
28988;SDS011;16089;59.952;10.818;2022-11-15T13:10:01;4.30;;;0.65;;
28988;SDS011;16089;59.952;10.818;2022-11-15T13:17:54;4.70;;;1.02;;
28988;SDS011;16089;59.952;10.818;2022-11-15T13:20:25;1.48;;;0.35;;
28988;SDS011;16089;59.952;10.818;2022-11-15T13:22:53;3.17;;;0.50;;
28988;SDS011;16089;59.952;10.818;2022-11-15T13:25:42;2.17;;;0.50;;
28988;SDS011;16089;59.952;10.818;2022-11-15T13:28:18;3.35;;;0.80;;
28988;SDS011;16089;59.952;10.818;2022-11-15T13:30:48;1.58;;;0.50;;
28988;SDS011;16089;59.952;10.818;2022-11-15T13:33:16;2.60;;;0.50;;
28988;SDS011;16089;59.952;10.818;2022-11-15T13:35:46;1.88;;;0.60;;
28988;SDS011;16089;59.952;10.818;2022-11-15T13:38:17;1.00;;;0.40;;
28988;SDS011;16089;59.952;10.818;2022-11-15T13:40:45;2.50;;;0.40;;
28988;SDS011;16089;59.952;10.818;2022-11-15T13:43:19;2.30;;;0.70;;
28988;SDS011;16089;59.952;10.818;2022-11-15T13:46:03;1.42;;;0.40;;
28988;SDS011;16089;59.952;10.818;2022-11-15T13:48:29;3.78;;;0.73;;
28988;SDS011;16089;59.952;10.818;2022-11-15T13:50:56;3.50;;;0.60;;
28988;SDS011;16089;59.952;10.818;2022-11-15T13:53:23;2.42;;;0.57;;
28988;SDS011;16089;59.952;10.818;2022-11-15T13:55:51;4.47;;;0.63;;
28988;SDS011;16089;59.952;10.818;2022-11-15T13:58:19;4.13;;;0.60;;
28988;SDS011;16089;59.952;10.818;2022-11-15T14:00:45;6.97;;;3.92;;
28988;SDS011;16089;59.952;10.818;2022-11-15T14:03:15;2.92;;;0.70;;
28988;SDS011;16089;59.952;10.818;2022-11-15T14:05:42;2.97;;;0.55;;
28988;SDS011;16089;59.952;10.818;2022-11-15T14:08:13;2.13;;;0.50;;
28988;SDS011;16089;59.952;10.818;2022-11-15T14:10:46;2.47;;;0.43;;
28988;SDS011;16089;59.952;10.818;2022-11-15T14:13:27;2.53;;;0.50;;
28988;SDS011;16089;59.952;10.818;2022-11-15T14:15:54;1.17;;;0.30;;
28988;SDS011;16089;59.952;10.818;2022-11-15T14:21:05;2.65;;;0.40;;
28988;SDS011;16089;59.952;10.818;2022-11-15T14:23:31;4.97;;;0.60;;
28988;SDS011;16089;59.952;10.818;2022-11-15T14:25:58;3.60;;;0.80;;
28988;SDS011;16089;59.952;10.818;2022-11-15T14:28:32;1.83;;;0.50;;
28988;SDS011;16089;59.952;10.818;2022-11-15T14:31:01;3.00;;;0.70;;
28988;SDS011;16089;59.952;10.818;2022-11-15T14:33:29;2.45;;;0.63;;
28988;SDS011;16089;59.952;10.818;2022-11-15T14:35:56;2.05;;;0.50;;
28988;SDS011;16089;59.952;10.818;2022-11-15T14:38:23;5.93;;;0.70;;
28988;SDS011;16089;59.952;10.818;2022-11-15T14:40:49;1.27;;;0.40;;
28988;SDS011;16089;59.952;10.818;2022-11-15T14:43:16;4.45;;;0.60;;
28988;SDS011;16089;59.952;10.818;2022-11-15T14:45:44;8.95;;;0.60;;
28988;SDS011;16089;59.952;10.818;2022-11-15T14:48:10;4.82;;;0.55;;
28988;SDS011;16089;59.952;10.818;2022-11-15T14:50:36;4.75;;;0.50;;
28988;SDS011;16089;59.952;10.818;2022-11-15T14:53:03;3.45;;;0.60;;
28988;SDS011;16089;59.952;10.818;2022-11-15T14:55:31;4.07;;;0.60;;